Humidity-temperature Sensor

Selected Measurement Type: Air Temperature

 
Air Temperature [°C]     6 entries per hour
Showing data from 4/19/2022 (00:00:00 Z) to 4/18/2022 (00:01:00 Z)
Previous Next [ Day | 3-Days | 7-Days ]
First Last
Prev [ Day | 3-Days | 7-Days ] Next
First Last

Start Time:     :
End Time:     :     
Time (in GMT) :00 :50 :40 :30 :20 :10
Previous Next [ Day | 3-Days | 7-Days ]
First Last
Prev [ Day | 3-Days | 7-Days ] Next
First Last


123 => good data
MM => data is determined as missing
-- => data not received/configured
Back to Top Back to Top
4/19/2022 00:00 to 23:10 27.38 27.36 27.31 27.29 27.48 27.49
4/18/2022 23:00 to 22:10 27.35 27.36 27.60 27.85 27.63 27.75
4/18/2022 22:00 to 21:10 27.68 27.93 27.77 27.85 27.68 27.58
4/18/2022 21:00 to 20:10 27.74 27.66 27.64 27.43 27.48 27.52
4/18/2022 20:00 to 19:10 27.21 27.07 27.19 27.46 27.67 27.47
4/18/2022 19:00 to 18:10 27.53 27.48 27.43 27.54 27.53 27.52
4/18/2022 18:00 to 17:10 27.27 27.21 27.38 27.36 27.21 27.24
4/18/2022 17:00 to 16:10 27.11 27.12 27.15 26.98 26.92 26.80
4/18/2022 16:00 to 15:10 26.78 26.71 26.51 26.55 26.21 26.43
4/18/2022 15:00 to 14:10 26.22 26.07 26.49 26.42 26.40 26.93
4/18/2022 14:00 to 13:10 26.87 26.31 26.47 26.43 27.34 27.21
4/18/2022 13:00 to 12:10 26.98 27.08 27.13 27.10 27.20 27.16
4/18/2022 12:00 to 11:10 27.14 27.35 27.07 27.32 27.29 27.16
4/18/2022 11:00 to 10:10 27.16 27.20 27.12 26.97 27.15 27.06
4/18/2022 10:00 to 9:10 26.99 27.03 27.13 26.97 26.99 27.16
4/18/2022 09:00 to 8:10 27.01 26.75 26.99 26.90 27.03 27.13
4/18/2022 08:00 to 7:10 27.32 27.29 26.96 26.89 27.03 26.99
4/18/2022 07:00 to 6:10 27.29 27.19 27.32 27.35 27.12 27.11
4/18/2022 06:00 to 5:10 27.22 27.31 27.09 27.01 27.11 27.06
4/18/2022 05:00 to 4:10 26.87 26.96 26.96 27.12 27.48 27.36
4/18/2022 04:00 to 3:10 27.62 27.37 27.39 27.38 27.39 27.46
4/18/2022 03:00 to 2:10 27.50 27.34 27.28 27.25 27.19 27.23
4/18/2022 02:00 to 1:10 27.29 27.20 27.16 27.14 27.22 27.22
4/18/2022 01:00 to 0:10 27.03 27.09 27.13 27.03 27.24 27.16